sensor_id;sensor_type;location;lat;lon;timestamp;temperature;humidity
39677;DHT22;27789;50.840;4.386;2022-07-22T00:00:30;18.40;99.90
39677;DHT22;27789;50.840;4.386;2022-07-22T00:02:56;18.40;99.90
39677;DHT22;27789;50.840;4.386;2022-07-22T00:05:21;18.40;99.90
39677;DHT22;27789;50.840;4.386;2022-07-22T00:07:47;18.50;99.90
39677;DHT22;27789;50.840;4.386;2022-07-22T00:10:13;18.40;99.90
39677;DHT22;27789;50.840;4.386;2022-07-22T00:12:39;18.30;99.90
39677;DHT22;27789;50.840;4.386;2022-07-22T00:15:06;18.30;99.90
39677;DHT22;27789;50.840;4.386;2022-07-22T00:17:32;18.30;99.90
39677;DHT22;27789;50.840;4.386;2022-07-22T00:19:57;18.30;99.90
39677;DHT22;27789;50.840;4.386;2022-07-22T00:22:23;18.30;99.90
39677;DHT22;27789;50.840;4.386;2022-07-22T00:24:49;18.40;99.90
39677;DHT22;27789;50.840;4.386;2022-07-22T00:27:14;18.40;99.90
39677;DHT22;27789;50.840;4.386;2022-07-22T00:29:40;18.40;99.90
39677;DHT22;27789;50.840;4.386;2022-07-22T00:32:06;18.40;99.90
39677;DHT22;27789;50.840;4.386;2022-07-22T00:34:31;18.40;99.90
39677;DHT22;27789;50.840;4.386;2022-07-22T00:36:57;18.40;99.90
39677;DHT22;27789;50.840;4.386;2022-07-22T00:39:22;18.40;99.90
39677;DHT22;27789;50.840;4.386;2022-07-22T00:41:48;18.40;99.90
39677;DHT22;27789;50.840;4.386;2022-07-22T00:44:14;18.40;99.90
39677;DHT22;27789;50.840;4.386;2022-07-22T00:46:40;18.40;99.90
39677;DHT22;27789;50.840;4.386;2022-07-22T00:49:07;18.30;99.90
39677;DHT22;27789;50.840;4.386;2022-07-22T00:51:34;18.30;99.90
39677;DHT22;27789;50.840;4.386;2022-07-22T00:54:01;18.30;99.90
39677;DHT22;27789;50.840;4.386;2022-07-22T00:56:28;18.30;99.90
39677;DHT22;27789;50.840;4.386;2022-07-22T00:58:56;18.30;99.90
39677;DHT22;27789;50.840;4.386;2022-07-22T01:01:22;18.30;99.90
39677;DHT22;27789;50.840;4.386;2022-07-22T01:03:47;18.20;99.90
39677;DHT22;27789;50.840;4.386;2022-07-22T01:06:13;18.20;99.90
39677;DHT22;27789;50.840;4.386;2022-07-22T01:08:39;18.20;99.90
39677;DHT22;27789;50.840;4.386;2022-07-22T01:13:34;18.20;99.90
39677;DHT22;27789;50.840;4.386;2022-07-22T01:16:00;18.20;99.90
39677;DHT22;27789;50.840;4.386;2022-07-22T01:18:26;18.10;99.90
39677;DHT22;27789;50.840;4.386;2022-07-22T01:20:51;18.10;99.90
39677;DHT22;27789;50.840;4.386;2022-07-22T01:23:17;18.10;99.90
39677;DHT22;27789;50.840;4.386;2022-07-22T01:25:43;18.10;99.90
39677;DHT22;27789;50.840;4.386;2022-07-22T01:28:08;18.00;99.90
39677;DHT22;27789;50.840;4.386;2022-07-22T01:30:34;18.00;99.90
39677;DHT22;27789;50.840;4.386;2022-07-22T01:32:59;18.00;99.90
39677;DHT22;27789;50.840;4.386;2022-07-22T01:35:25;17.90;99.90
39677;DHT22;27789;50.840;4.386;2022-07-22T01:37:50;18.00;99.90
39677;DHT22;27789;50.840;4.386;2022-07-22T01:40:16;17.90;99.90
39677;DHT22;27789;50.840;4.386;2022-07-22T01:42:42;17.90;99.90
39677;DHT22;27789;50.840;4.386;2022-07-22T01:45:08;17.90;99.90
39677;DHT22;27789;50.840;4.386;2022-07-22T01:47:33;17.90;99.90
39677;DHT22;27789;50.840;4.386;2022-07-22T01:49:59;18.00;99.90
39677;DHT22;27789;50.840;4.386;2022-07-22T01:52:25;17.90;99.90
39677;DHT22;27789;50.840;4.386;2022-07-22T01:54:50;17.90;99.90
39677;DHT22;27789;50.840;4.386;2022-07-22T01:57:16;17.90;99.90
39677;DHT22;27789;50.840;4.386;2022-07-22T01:59:41;18.00;99.90
39677;DHT22;27789;50.840;4.386;2022-07-22T02:02:07;18.00;99.90
39677;DHT22;27789;50.840;4.386;2022-07-22T02:04:33;17.90;99.90
39677;DHT22;27789;50.840;4.386;2022-07-22T02:06:58;17.80;99.90
39677;DHT22;27789;50.840;4.386;2022-07-22T02:09:24;17.90;99.90
39677;DHT22;27789;50.840;4.386;2022-07-22T02:11:49;17.90;99.90
39677;DHT22;27789;50.840;4.386;2022-07-22T02:14:15;17.90;99.90
39677;DHT22;27789;50.840;4.386;2022-07-22T02:16:41;17.90;99.90
39677;DHT22;27789;50.840;4.386;2022-07-22T02:19:06;18.00;99.90
39677;DHT22;27789;50.840;4.386;2022-07-22T02:21:32;17.90;99.90
39677;DHT22;27789;50.840;4.386;2022-07-22T02:23:58;17.90;99.90
39677;DHT22;27789;50.840;4.386;2022-07-22T02:26:23;17.90;99.90
39677;DHT22;27789;50.840;4.386;2022-07-22T02:28:49;17.80;99.90
39677;DHT22;27789;50.840;4.386;2022-07-22T02:31:14;17.80;99.90
39677;DHT22;27789;50.840;4.386;2022-07-22T02:33:40;17.80;99.90
39677;DHT22;27789;50.840;4.386;2022-07-22T02:36:06;17.80;99.90
39677;DHT22;27789;50.840;4.386;2022-07-22T02:38:31;17.70;99.90
39677;DHT22;27789;50.840;4.386;2022-07-22T02:40:57;17.70;99.90
39677;DHT22;27789;50.840;4.386;2022-07-22T02:43:22;17.70;99.90
39677;DHT22;27789;50.840;4.386;2022-07-22T02:45:48;17.70;99.90
39677;DHT22;27789;50.840;4.386;2022-07-22T02:48:14;17.70;99.90
39677;DHT22;27789;50.840;4.386;2022-07-22T02:50:45;17.70;99.90
39677;DHT22;27789;50.840;4.386;2022-07-22T02:53:11;17.70;99.90
39677;DHT22;27789;50.840;4.386;2022-07-22T02:55:37;17.70;99.90
39677;DHT22;27789;50.840;4.386;2022-07-22T02:58:07;17.70;99.90
39677;DHT22;27789;50.840;4.386;2022-07-22T03:00:34;17.60;99.90
39677;DHT22;27789;50.840;4.386;2022-07-22T03:03:00;17.70;99.90
39677;DHT22;27789;50.840;4.386;2022-07-22T03:05:25;17.70;99.90
39677;DHT22;27789;50.840;4.386;2022-07-22T03:07:51;17.70;99.90
39677;DHT22;27789;50.840;4.386;2022-07-22T03:10:16;17.60;99.90
39677;DHT22;27789;50.840;4.386;2022-07-22T03:12:42;17.60;99.90
39677;DHT22;27789;50.840;4.386;2022-07-22T03:15:08;17.70;99.90
39677;DHT22;27789;50.840;4.386;2022-07-22T03:17:35;17.70;99.90
39677;DHT22;27789;50.840;4.386;2022-07-22T03:20:10;17.70;99.90
39677;DHT22;27789;50.840;4.386;2022-07-22T03:22:36;17.60;99.90
39677;DHT22;27789;50.840;4.386;2022-07-22T03:25:02;17.70;99.90
39677;DHT22;27789;50.840;4.386;2022-07-22T03:27:29;17.70;99.90
39677;DHT22;27789;50.840;4.386;2022-07-22T03:29:54;17.60;99.90
39677;DHT22;27789;50.840;4.386;2022-07-22T03:32:20;17.60;99.90
39677;DHT22;27789;50.840;4.386;2022-07-22T03:34:45;17.60;99.90
39677;DHT22;27789;50.840;4.386;2022-07-22T03:37:11;17.60;99.90
39677;DHT22;27789;50.840;4.386;2022-07-22T03:39:37;17.60;99.90
39677;DHT22;27789;50.840;4.386;2022-07-22T03:42:02;17.50;99.90
39677;DHT22;27789;50.840;4.386;2022-07-22T03:44:28;17.50;99.90
39677;DHT22;27789;50.840;4.386;2022-07-22T03:46:54;17.50;99.90
39677;DHT22;27789;50.840;4.386;2022-07-22T03:49:19;17.50;99.90
39677;DHT22;27789;50.840;4.386;2022-07-22T03:51:45;17.50;99.90
39677;DHT22;27789;50.840;4.386;2022-07-22T03:54:11;17.50;99.90
39677;DHT22;27789;50.840;4.386;2022-07-22T03:56:37;17.50;99.90
39677;DHT22;27789;50.840;4.386;2022-07-22T03:59:02;17.50;99.90
39677;DHT22;27789;50.840;4.386;2022-07-22T04:01:28;17.50;99.90
39677;DHT22;27789;50.840;4.386;2022-07-22T04:03:53;17.40;99.90
39677;DHT22;27789;50.840;4.386;2022-07-22T04:06:19;17.40;99.90
39677;DHT22;27789;50.840;4.386;2022-07-22T04:08:45;17.30;99.90
39677;DHT22;27789;50.840;4.386;2022-07-22T04:11:10;17.30;99.90
39677;DHT22;27789;50.840;4.386;2022-07-22T04:13:36;17.30;99.90
39677;DHT22;27789;50.840;4.386;2022-07-22T04:16:02;17.30;99.90
39677;DHT22;27789;50.840;4.386;2022-07-22T04:18:30;17.30;99.90
39677;DHT22;27789;50.840;4.386;2022-07-22T04:20:56;17.30;99.90
39677;DHT22;27789;50.840;4.386;2022-07-22T04:23:21;17.40;99.90
39677;DHT22;27789;50.840;4.386;2022-07-22T04:25:47;17.30;99.90
39677;DHT22;27789;50.840;4.386;2022-07-22T04:28:13;17.40;99.90
39677;DHT22;27789;50.840;4.386;2022-07-22T04:30:38;17.30;99.90
39677;DHT22;27789;50.840;4.386;2022-07-22T04:33:04;17.40;99.90
39677;DHT22;27789;50.840;4.386;2022-07-22T04:35:30;17.40;99.90
39677;DHT22;27789;50.840;4.386;2022-07-22T04:37:55;17.40;99.90
39677;DHT22;27789;50.840;4.386;2022-07-22T04:40:21;17.40;99.90
39677;DHT22;27789;50.840;4.386;2022-07-22T04:42:47;17.40;99.90
39677;DHT22;27789;50.840;4.386;2022-07-22T04:45:12;17.40;99.90
39677;DHT22;27789;50.840;4.386;2022-07-22T04:47:38;17.50;99.90
39677;DHT22;27789;50.840;4.386;2022-07-22T04:50:04;17.50;99.90
39677;DHT22;27789;50.840;4.386;2022-07-22T04:52:29;17.50;99.90
39677;DHT22;27789;50.840;4.386;2022-07-22T04:54:55;17.60;99.90
39677;DHT22;27789;50.840;4.386;2022-07-22T04:57:24;17.60;99.90
39677;DHT22;27789;50.840;4.386;2022-07-22T04:59:50;17.70;99.90
39677;DHT22;27789;50.840;4.386;2022-07-22T05:02:15;17.80;99.90
39677;DHT22;27789;50.840;4.386;2022-07-22T05:04:41;17.80;99.90
39677;DHT22;27789;50.840;4.386;2022-07-22T05:07:07;17.90;99.90
39677;DHT22;27789;50.840;4.386;2022-07-22T05:09:32;17.90;99.90
39677;DHT22;27789;50.840;4.386;2022-07-22T05:11:58;17.90;99.90
39677;DHT22;27789;50.840;4.386;2022-07-22T05:14:23;17.90;99.90
39677;DHT22;27789;50.840;4.386;2022-07-22T05:16:49;17.90;99.90
39677;DHT22;27789;50.840;4.386;2022-07-22T05:19:14;17.90;99.90
39677;DHT22;27789;50.840;4.386;2022-07-22T05:21:40;18.00;99.90
39677;DHT22;27789;50.840;4.386;2022-07-22T05:24:06;18.00;99.90
39677;DHT22;27789;50.840;4.386;2022-07-22T05:26:32;17.90;99.90
39677;DHT22;27789;50.840;4.386;2022-07-22T05:28:58;17.90;99.90
39677;DHT22;27789;50.840;4.386;2022-07-22T05:31:24;17.90;99.90
39677;DHT22;27789;50.840;4.386;2022-07-22T05:33:50;18.00;99.90
39677;DHT22;27789;50.840;4.386;2022-07-22T05:36:15;18.10;99.90
39677;DHT22;27789;50.840;4.386;2022-07-22T05:38:41;18.10;99.90
39677;DHT22;27789;50.840;4.386;2022-07-22T05:41:07;18.20;99.90
39677;DHT22;27789;50.840;4.386;2022-07-22T05:43:32;18.20;99.90
39677;DHT22;27789;50.840;4.386;2022-07-22T05:45:59;18.20;99.90
39677;DHT22;27789;50.840;4.386;2022-07-22T05:48:24;18.20;99.90
39677;DHT22;27789;50.840;4.386;2022-07-22T05:50:50;18.20;99.90
39677;DHT22;27789;50.840;4.386;2022-07-22T05:53:15;18.30;99.90
39677;DHT22;27789;50.840;4.386;2022-07-22T05:55:41;18.30;99.90
39677;DHT22;27789;50.840;4.386;2022-07-22T05:58:07;18.40;99.90
39677;DHT22;27789;50.840;4.386;2022-07-22T06:00:32;18.40;99.90
39677;DHT22;27789;50.840;4.386;2022-07-22T06:02:58;18.50;99.90
39677;DHT22;27789;50.840;4.386;2022-07-22T06:05:24;18.50;99.90
39677;DHT22;27789;50.840;4.386;2022-07-22T06:07:49;18.50;99.90
39677;DHT22;27789;50.840;4.386;2022-07-22T06:10:15;18.60;99.90
39677;DHT22;27789;50.840;4.386;2022-07-22T06:12:40;18.70;99.90
39677;DHT22;27789;50.840;4.386;2022-07-22T06:15:06;18.70;99.90
39677;DHT22;27789;50.840;4.386;2022-07-22T06:17:32;18.70;99.90
39677;DHT22;27789;50.840;4.386;2022-07-22T06:19:58;18.70;99.90
39677;DHT22;27789;50.840;4.386;2022-07-22T06:22:23;18.80;99.90
39677;DHT22;27789;50.840;4.386;2022-07-22T06:24:49;18.80;99.90
39677;DHT22;27789;50.840;4.386;2022-07-22T06:27:14;18.80;99.90
39677;DHT22;27789;50.840;4.386;2022-07-22T06:29:40;18.90;99.90
39677;DHT22;27789;50.840;4.386;2022-07-22T06:32:07;18.80;99.90
39677;DHT22;27789;50.840;4.386;2022-07-22T06:34:33;18.80;99.90
39677;DHT22;27789;50.840;4.386;2022-07-22T06:36:58;18.80;99.90
39677;DHT22;27789;50.840;4.386;2022-07-22T06:39:24;18.90;99.90
39677;DHT22;27789;50.840;4.386;2022-07-22T06:41:50;19.00;99.90
39677;DHT22;27789;50.840;4.386;2022-07-22T06:44:15;19.10;99.90
39677;DHT22;27789;50.840;4.386;2022-07-22T06:46:41;19.10;99.90
39677;DHT22;27789;50.840;4.386;2022-07-22T06:49:07;19.20;99.90
39677;DHT22;27789;50.840;4.386;2022-07-22T06:51:33;19.20;99.90
39677;DHT22;27789;50.840;4.386;2022-07-22T06:53:59;19.30;99.90
39677;DHT22;27789;50.840;4.386;2022-07-22T06:56:24;19.40;99.90
39677;DHT22;27789;50.840;4.386;2022-07-22T06:58:50;19.50;99.90
39677;DHT22;27789;50.840;4.386;2022-07-22T07:01:16;19.50;99.90
39677;DHT22;27789;50.840;4.386;2022-07-22T07:03:41;19.50;99.90
39677;DHT22;27789;50.840;4.386;2022-07-22T07:06:09;19.50;99.90
39677;DHT22;27789;50.840;4.386;2022-07-22T07:08:37;19.60;99.90
39677;DHT22;27789;50.840;4.386;2022-07-22T07:11:02;19.70;99.90
39677;DHT22;27789;50.840;4.386;2022-07-22T07:13:28;19.80;99.90
39677;DHT22;27789;50.840;4.386;2022-07-22T07:15:55;19.80;99.90
39677;DHT22;27789;50.840;4.386;2022-07-22T07:18:20;19.90;99.90
39677;DHT22;27789;50.840;4.386;2022-07-22T07:20:46;19.90;99.90
39677;DHT22;27789;50.840;4.386;2022-07-22T07:23:12;19.90;99.90
39677;DHT22;27789;50.840;4.386;2022-07-22T07:25:37;20.00;99.90
39677;DHT22;27789;50.840;4.386;2022-07-22T07:28:03;20.10;99.90
39677;DHT22;27789;50.840;4.386;2022-07-22T07:30:29;20.20;99.90
39677;DHT22;27789;50.840;4.386;2022-07-22T07:32:54;20.30;99.90
39677;DHT22;27789;50.840;4.386;2022-07-22T07:35:20;20.40;99.90
39677;DHT22;27789;50.840;4.386;2022-07-22T07:37:46;20.50;99.90
39677;DHT22;27789;50.840;4.386;2022-07-22T07:40:11;20.60;99.90
39677;DHT22;27789;50.840;4.386;2022-07-22T07:42:37;20.60;99.90
39677;DHT22;27789;50.840;4.386;2022-07-22T07:45:03;20.70;99.90
39677;DHT22;27789;50.840;4.386;2022-07-22T07:47:29;20.80;99.90
39677;DHT22;27789;50.840;4.386;2022-07-22T07:49:55;20.70;99.90
39677;DHT22;27789;50.840;4.386;2022-07-22T07:52:22;20.70;99.90
39677;DHT22;27789;50.840;4.386;2022-07-22T07:54:48;20.70;99.90
39677;DHT22;27789;50.840;4.386;2022-07-22T07:57:13;20.80;99.80
39677;DHT22;27789;50.840;4.386;2022-07-22T07:59:39;20.80;99.90
39677;DHT22;27789;50.840;4.386;2022-07-22T08:02:06;20.90;99.90
39677;DHT22;27789;50.840;4.386;2022-07-22T08:04:32;20.90;99.90
39677;DHT22;27789;50.840;4.386;2022-07-22T08:06:58;20.90;99.90
39677;DHT22;27789;50.840;4.386;2022-07-22T08:09:24;20.90;99.90
39677;DHT22;27789;50.840;4.386;2022-07-22T08:11:50;21.00;99.90
39677;DHT22;27789;50.840;4.386;2022-07-22T08:14:16;21.00;99.90
39677;DHT22;27789;50.840;4.386;2022-07-22T08:16:42;21.10;99.80
39677;DHT22;27789;50.840;4.386;2022-07-22T08:19:07;21.10;99.30
39677;DHT22;27789;50.840;4.386;2022-07-22T08:21:33;21.10;99.30
39677;DHT22;27789;50.840;4.386;2022-07-22T08:23:59;21.20;99.50
39677;DHT22;27789;50.840;4.386;2022-07-22T08:26:25;21.30;99.10
39677;DHT22;27789;50.840;4.386;2022-07-22T08:28:50;21.40;98.90
39677;DHT22;27789;50.840;4.386;2022-07-22T08:31:16;21.40;98.90
39677;DHT22;27789;50.840;4.386;2022-07-22T08:33:42;21.40;99.00
39677;DHT22;27789;50.840;4.386;2022-07-22T08:36:08;21.40;98.90
39677;DHT22;27789;50.840;4.386;2022-07-22T08:38:34;21.40;99.10
39677;DHT22;27789;50.840;4.386;2022-07-22T08:41:02;21.40;99.10
39677;DHT22;27789;50.840;4.386;2022-07-22T08:43:30;21.40;99.00
39677;DHT22;27789;50.840;4.386;2022-07-22T08:45:56;21.60;98.40
39677;DHT22;27789;50.840;4.386;2022-07-22T08:48:22;21.50;98.40
39677;DHT22;27789;50.840;4.386;2022-07-22T08:50:48;21.60;98.40
39677;DHT22;27789;50.840;4.386;2022-07-22T08:53:14;21.70;98.10
39677;DHT22;27789;50.840;4.386;2022-07-22T08:55:44;21.80;97.80
39677;DHT22;27789;50.840;4.386;2022-07-22T08:58:10;21.90;97.60
39677;DHT22;27789;50.840;4.386;2022-07-22T09:00:37;21.90;97.80
39677;DHT22;27789;50.840;4.386;2022-07-22T09:03:17;21.90;97.60
39677;DHT22;27789;50.840;4.386;2022-07-22T09:05:43;22.00;97.70
39677;DHT22;27789;50.840;4.386;2022-07-22T09:08:09;22.20;97.60
39677;DHT22;27789;50.840;4.386;2022-07-22T09:10:35;22.30;97.40
39677;DHT22;27789;50.840;4.386;2022-07-22T09:13:05;22.40;96.80
39677;DHT22;27789;50.840;4.386;2022-07-22T09:15:33;22.60;96.30
39677;DHT22;27789;50.840;4.386;2022-07-22T09:18:01;22.60;96.40
39677;DHT22;27789;50.840;4.386;2022-07-22T09:20:28;22.70;95.90
39677;DHT22;27789;50.840;4.386;2022-07-22T09:22:55;22.80;96.00
39677;DHT22;27789;50.840;4.386;2022-07-22T09:25:28;22.80;95.50
39677;DHT22;27789;50.840;4.386;2022-07-22T09:30:47;23.10;95.20
39677;DHT22;27789;50.840;4.386;2022-07-22T09:33:13;23.30;94.90
39677;DHT22;27789;50.840;4.386;2022-07-22T09:35:39;23.30;95.10
39677;DHT22;27789;50.840;4.386;2022-07-22T09:38:07;23.20;94.30
39677;DHT22;27789;50.840;4.386;2022-07-22T09:40:35;23.30;94.30
39677;DHT22;27789;50.840;4.386;2022-07-22T09:43:12;23.20;94.20
39677;DHT22;27789;50.840;4.386;2022-07-22T09:45:49;23.10;94.40
39677;DHT22;27789;50.840;4.386;2022-07-22T09:48:17;23.10;94.30
39677;DHT22;27789;50.840;4.386;2022-07-22T09:50:45;23.00;94.80
39677;DHT22;27789;50.840;4.386;2022-07-22T09:53:11;22.90;94.60
39677;DHT22;27789;50.840;4.386;2022-07-22T09:55:38;22.90;94.60
39677;DHT22;27789;50.840;4.386;2022-07-22T09:58:04;22.90;94.40
39677;DHT22;27789;50.840;4.386;2022-07-22T10:00:33;23.00;94.40
39677;DHT22;27789;50.840;4.386;2022-07-22T10:03:01;23.10;94.30
39677;DHT22;27789;50.840;4.386;2022-07-22T10:05:39;23.10;94.00
39677;DHT22;27789;50.840;4.386;2022-07-22T10:08:06;23.10;94.20
39677;DHT22;27789;50.840;4.386;2022-07-22T10:10:33;23.20;94.00
39677;DHT22;27789;50.840;4.386;2022-07-22T10:13:00;23.20;93.90
39677;DHT22;27789;50.840;4.386;2022-07-22T10:15:28;23.30;93.80
39677;DHT22;27789;50.840;4.386;2022-07-22T10:17:57;23.30;94.50
39677;DHT22;27789;50.840;4.386;2022-07-22T10:20:29;23.50;94.20
39677;DHT22;27789;50.840;4.386;2022-07-22T10:22:56;23.60;93.60
39677;DHT22;27789;50.840;4.386;2022-07-22T10:25:25;23.80;93.80
39677;DHT22;27789;50.840;4.386;2022-07-22T10:30:22;24.10;93.10
39677;DHT22;27789;50.840;4.386;2022-07-22T10:35:31;24.30;92.70
39677;DHT22;27789;50.840;4.386;2022-07-22T10:38:00;24.40;91.90
39677;DHT22;27789;50.840;4.386;2022-07-22T10:40:28;24.20;91.90
39677;DHT22;27789;50.840;4.386;2022-07-22T10:48:16;24.40;92.30
39677;DHT22;27789;50.840;4.386;2022-07-22T10:50:48;24.50;92.60
39677;DHT22;27789;50.840;4.386;2022-07-22T10:53:21;24.80;92.50
39677;DHT22;27789;50.840;4.386;2022-07-22T10:55:59;25.00;91.40
39677;DHT22;27789;50.840;4.386;2022-07-22T11:01:01;25.30;91.20
39677;DHT22;27789;50.840;4.386;2022-07-22T11:03:29;25.30;91.00
39677;DHT22;27789;50.840;4.386;2022-07-22T11:05:55;25.40;90.50
39677;DHT22;27789;50.840;4.386;2022-07-22T11:08:22;25.50;90.30
39677;DHT22;27789;50.840;4.386;2022-07-22T11:10:50;25.50;90.20
39677;DHT22;27789;50.840;4.386;2022-07-22T11:13:33;25.60;90.10
39677;DHT22;27789;50.840;4.386;2022-07-22T11:16:20;25.60;89.10
39677;DHT22;27789;50.840;4.386;2022-07-22T11:18:55;25.60;89.80
39677;DHT22;27789;50.840;4.386;2022-07-22T11:21:23;25.70;90.00
39677;DHT22;27789;50.840;4.386;2022-07-22T11:23:51;25.90;90.00
39677;DHT22;27789;50.840;4.386;2022-07-22T11:26:20;25.90;90.00
39677;DHT22;27789;50.840;4.386;2022-07-22T11:28:48;25.90;90.40
39677;DHT22;27789;50.840;4.386;2022-07-22T11:31:17;26.10;90.10
39677;DHT22;27789;50.840;4.386;2022-07-22T11:33:43;26.40;88.00
39677;DHT22;27789;50.840;4.386;2022-07-22T11:36:09;26.60;88.20
39677;DHT22;27789;50.840;4.386;2022-07-22T11:38:49;26.70;88.20
39677;DHT22;27789;50.840;4.386;2022-07-22T11:41:17;26.50;87.70
39677;DHT22;27789;50.840;4.386;2022-07-22T11:43:47;26.50;87.60
39677;DHT22;27789;50.840;4.386;2022-07-22T11:46:15;26.50;87.90
39677;DHT22;27789;50.840;4.386;2022-07-22T11:48:42;26.50;87.00
39677;DHT22;27789;50.840;4.386;2022-07-22T11:51:10;26.30;88.10
39677;DHT22;27789;50.840;4.386;2022-07-22T11:53:37;26.20;87.60
39677;DHT22;27789;50.840;4.386;2022-07-22T11:56:06;26.10;87.60
39677;DHT22;27789;50.840;4.386;2022-07-22T11:58:44;26.10;88.00
39677;DHT22;27789;50.840;4.386;2022-07-22T12:01:16;26.20;87.90
39677;DHT22;27789;50.840;4.386;2022-07-22T12:03:46;26.20;87.30
39677;DHT22;27789;50.840;4.386;2022-07-22T12:06:13;26.20;87.60
39677;DHT22;27789;50.840;4.386;2022-07-22T12:08:43;26.40;87.60
39677;DHT22;27789;50.840;4.386;2022-07-22T12:11:11;26.40;87.40
39677;DHT22;27789;50.840;4.386;2022-07-22T12:13:41;26.50;86.40
39677;DHT22;27789;50.840;4.386;2022-07-22T12:19:02;26.80;85.80
39677;DHT22;27789;50.840;4.386;2022-07-22T12:21:30;27.10;84.90
39677;DHT22;27789;50.840;4.386;2022-07-22T12:24:03;27.50;84.80
39677;DHT22;27789;50.840;4.386;2022-07-22T12:31:47;27.10;85.40
39677;DHT22;27789;50.840;4.386;2022-07-22T12:34:13;26.80;84.50
39677;DHT22;27789;50.840;4.386;2022-07-22T12:36:43;26.70;84.70
39677;DHT22;27789;50.840;4.386;2022-07-22T12:41:46;26.40;85.10
39677;DHT22;27789;50.840;4.386;2022-07-22T12:44:21;26.20;85.40
39677;DHT22;27789;50.840;4.386;2022-07-22T12:46:51;26.00;86.00
39677;DHT22;27789;50.840;4.386;2022-07-22T12:49:19;26.20;86.30
39677;DHT22;27789;50.840;4.386;2022-07-22T12:54:35;26.50;84.80
39677;DHT22;27789;50.840;4.386;2022-07-22T12:57:01;26.70;84.80
39677;DHT22;27789;50.840;4.386;2022-07-22T12:59:27;26.90;84.00
39677;DHT22;27789;50.840;4.386;2022-07-22T13:01:52;27.00;84.30
39677;DHT22;27789;50.840;4.386;2022-07-22T13:04:18;27.20;83.40
39677;DHT22;27789;50.840;4.386;2022-07-22T13:06:44;27.40;82.90
39677;DHT22;27789;50.840;4.386;2022-07-22T13:09:09;27.50;82.90
39677;DHT22;27789;50.840;4.386;2022-07-22T13:11:35;27.50;82.40
39677;DHT22;27789;50.840;4.386;2022-07-22T13:14:05;27.50;83.40
39677;DHT22;27789;50.840;4.386;2022-07-22T13:16:31;27.60;83.00
39677;DHT22;27789;50.840;4.386;2022-07-22T13:18:56;27.60;82.60
39677;DHT22;27789;50.840;4.386;2022-07-22T13:21:22;27.70;83.00
39677;DHT22;27789;50.840;4.386;2022-07-22T13:23:48;27.70;83.40
39677;DHT22;27789;50.840;4.386;2022-07-22T13:26:13;27.50;83.10
39677;DHT22;27789;50.840;4.386;2022-07-22T13:28:39;27.40;83.20
39677;DHT22;27789;50.840;4.386;2022-07-22T13:31:05;27.20;83.10
39677;DHT22;27789;50.840;4.386;2022-07-22T13:33:31;26.90;83.60
39677;DHT22;27789;50.840;4.386;2022-07-22T13:35:57;26.70;84.00
39677;DHT22;27789;50.840;4.386;2022-07-22T13:38:22;26.30;84.90
39677;DHT22;27789;50.840;4.386;2022-07-22T13:40:48;26.20;86.30
39677;DHT22;27789;50.840;4.386;2022-07-22T13:43:17;26.20;86.40
39677;DHT22;27789;50.840;4.386;2022-07-22T13:45:43;26.20;85.50
39677;DHT22;27789;50.840;4.386;2022-07-22T13:48:09;26.30;85.60
39677;DHT22;27789;50.840;4.386;2022-07-22T13:50:35;26.40;85.90
39677;DHT22;27789;50.840;4.386;2022-07-22T13:53:00;26.50;85.50
39677;DHT22;27789;50.840;4.386;2022-07-22T13:55:26;26.60;85.20
39677;DHT22;27789;50.840;4.386;2022-07-22T13:57:53;26.70;85.70
39677;DHT22;27789;50.840;4.386;2022-07-22T14:00:19;26.90;84.90
39677;DHT22;27789;50.840;4.386;2022-07-22T14:02:45;27.00;84.90
39677;DHT22;27789;50.840;4.386;2022-07-22T14:05:11;27.00;84.80
39677;DHT22;27789;50.840;4.386;2022-07-22T14:07:37;27.10;84.70
39677;DHT22;27789;50.840;4.386;2022-07-22T14:10:03;26.90;84.50
39677;DHT22;27789;50.840;4.386;2022-07-22T14:12:29;26.70;84.80
39677;DHT22;27789;50.840;4.386;2022-07-22T14:14:55;26.70;85.00
39677;DHT22;27789;50.840;4.386;2022-07-22T14:17:20;26.60;85.30
39677;DHT22;27789;50.840;4.386;2022-07-22T14:19:46;26.60;84.50
39677;DHT22;27789;50.840;4.386;2022-07-22T14:22:12;26.50;85.00
39677;DHT22;27789;50.840;4.386;2022-07-22T14:24:40;26.30;85.00
39677;DHT22;27789;50.840;4.386;2022-07-22T14:27:05;26.20;85.70
39677;DHT22;27789;50.840;4.386;2022-07-22T14:29:31;26.00;86.00
39677;DHT22;27789;50.840;4.386;2022-07-22T14:31:56;25.80;86.60
39677;DHT22;27789;50.840;4.386;2022-07-22T14:34:22;25.40;87.10
39677;DHT22;27789;50.840;4.386;2022-07-22T14:36:48;25.30;88.00
39677;DHT22;27789;50.840;4.386;2022-07-22T14:39:14;25.20;87.90
39677;DHT22;27789;50.840;4.386;2022-07-22T14:41:39;25.00;88.00
39677;DHT22;27789;50.840;4.386;2022-07-22T14:44:05;25.00;88.30
39677;DHT22;27789;50.840;4.386;2022-07-22T14:46:30;24.90;89.10
39677;DHT22;27789;50.840;4.386;2022-07-22T14:48:57;25.00;89.30
39677;DHT22;27789;50.840;4.386;2022-07-22T14:51:23;25.10;89.60
39677;DHT22;27789;50.840;4.386;2022-07-22T14:53:49;25.10;89.10
39677;DHT22;27789;50.840;4.386;2022-07-22T14:56:15;25.00;89.20
39677;DHT22;27789;50.840;4.386;2022-07-22T14:58:40;25.00;89.10
39677;DHT22;27789;50.840;4.386;2022-07-22T15:01:06;25.00;89.60
39677;DHT22;27789;50.840;4.386;2022-07-22T15:03:32;25.00;89.80
39677;DHT22;27789;50.840;4.386;2022-07-22T15:05:57;24.90;90.00
39677;DHT22;27789;50.840;4.386;2022-07-22T15:08:23;24.80;90.10
39677;DHT22;27789;50.840;4.386;2022-07-22T15:10:48;24.90;90.20
39677;DHT22;27789;50.840;4.386;2022-07-22T15:13:14;25.00;90.20
39677;DHT22;27789;50.840;4.386;2022-07-22T15:15:40;25.00;90.00
39677;DHT22;27789;50.840;4.386;2022-07-22T15:18:06;25.00;90.50
39677;DHT22;27789;50.840;4.386;2022-07-22T15:20:31;25.10;90.30
39677;DHT22;27789;50.840;4.386;2022-07-22T15:22:57;25.20;90.30
39677;DHT22;27789;50.840;4.386;2022-07-22T15:25:23;25.20;90.00
39677;DHT22;27789;50.840;4.386;2022-07-22T15:27:52;25.00;90.00
39677;DHT22;27789;50.840;4.386;2022-07-22T15:30:18;25.00;90.30
39677;DHT22;27789;50.840;4.386;2022-07-22T15:32:45;24.90;90.40
39677;DHT22;27789;50.840;4.386;2022-07-22T15:35:10;24.90;90.20
39677;DHT22;27789;50.840;4.386;2022-07-22T15:37:36;24.90;90.20
39677;DHT22;27789;50.840;4.386;2022-07-22T15:40:05;25.00;90.40
39677;DHT22;27789;50.840;4.386;2022-07-22T15:42:30;25.00;90.30
39677;DHT22;27789;50.840;4.386;2022-07-22T15:44:56;24.90;90.10
39677;DHT22;27789;50.840;4.386;2022-07-22T15:47:22;24.90;90.20
39677;DHT22;27789;50.840;4.386;2022-07-22T15:49:47;24.90;90.50
39677;DHT22;27789;50.840;4.386;2022-07-22T15:52:13;25.00;90.30
39677;DHT22;27789;50.840;4.386;2022-07-22T15:54:39;25.00;90.20
39677;DHT22;27789;50.840;4.386;2022-07-22T15:57:07;24.90;90.40